Airfield :
LOGIN :

Register | Disclaimer

   EN    FR    IT 

 










Legend :    VFR   Marginal VFR   IFR   Intensive IFR   Very Intensive IFR
Visi :
Ceiling :
>= 8 km
>= 3000ft
5 to 8 km
1000 to 3000 ft
1500m to 5 km
500 to 1000 ft
800 to 1500m
200 to 500 ft
< 800m
< 200 ft
Symbols :   Thunderstorms  Fog  Heavy snow  Heavy precipitations  Wind > 20 kt
SIGMETs :     Misc.  Thunderstorms  Icing  Turbulence  Mountain Waves  Volcanic Ashes






- Airport Elevation : 8 ft
- IATA code : JCU


GECE - Ceuta Heliport

CURRENT METAR :
  • 300930Z AUTO 31006KT CAVOK 20/14 Q1013

EXPIRED METARs :
  • 300900Z AUTO 31007KT CAVOK 19/14 Q1013
  • 300830Z AUTO VRB05G17KT CAVOK 19/14 Q1013
  • 300800Z AUTO 28006KT CAVOK 19/14 Q1012
  • 300730Z AUTO VRB02KT CAVOK 18/14 Q1012
  • 300700Z AUTO 30016KT CAVOK 18/15 Q1012

TAF TAF GECE
Valid from the 30 at 09:00 until the 01 at 09:00 UTC


300800Z 3009/0109 30010KT 9999 FEW025 TX24/3014Z TN18/0105Z
BECMG 3018/3020 VRB02KT
BECMG 0105/0107 07010KT
PROB30
TEMPO 0105/0109 BKN014



MET'MAP, your aeronautical weather chart ! - Copyright ORBIFLY December 2007 - Disclaimer

ORBIFLY MET'MAP TEAM :

Programming & Development : Alexandra Zaïnal
Original concept : Baudouin d'Aumeries
Technical & hardware support : Manuel Goepfert
Assistance : Marc-Olivier Méhu




SOURCES & CREDITS :

   NOAA